createdAt,value
2018-07-27T00:00:46.671Z,26.19
2018-07-27T00:03:14.152Z,26.22
2018-07-27T00:05:41.629Z,26.24
2018-07-27T00:08:09.065Z,26.25
2018-07-27T00:10:36.510Z,26.15
2018-07-27T00:13:03.992Z,26.07
2018-07-27T00:15:31.435Z,26.04
2018-07-27T00:17:58.871Z,26.00
2018-07-27T00:20:26.436Z,25.92
2018-07-27T00:22:53.935Z,25.87
2018-07-27T00:25:21.395Z,25.82
2018-07-27T00:27:48.925Z,25.77
2018-07-27T00:30:16.382Z,25.73
2018-07-27T00:32:43.814Z,25.61
2018-07-27T00:35:11.303Z,25.57
2018-07-27T00:37:38.778Z,25.57
2018-07-27T00:40:06.209Z,25.53
2018-07-27T00:42:33.648Z,25.45
2018-07-27T00:45:01.132Z,25.40
2018-07-27T00:47:28.672Z,25.38
2018-07-27T00:49:56.160Z,25.33
2018-07-27T00:52:23.676Z,25.26
2018-07-27T00:54:51.174Z,25.23
2018-07-27T00:57:18.581Z,25.21
2018-07-27T00:59:46.023Z,25.18
2018-07-27T01:02:13.509Z,25.08
2018-07-27T01:04:40.978Z,25.05
2018-07-27T01:07:08.434Z,25.13
2018-07-27T01:09:35.976Z,25.09
2018-07-27T01:12:03.452Z,25.05
2018-07-27T01:14:30.916Z,25.05
2018-07-27T01:16:58.428Z,25.04
2018-07-27T01:19:25.905Z,25.08
2018-07-27T01:21:53.355Z,25.11
2018-07-27T01:24:20.857Z,25.05
2018-07-27T01:26:48.499Z,24.98
2018-07-27T01:29:16.001Z,24.90
2018-07-27T01:31:43.547Z,24.83
2018-07-27T01:34:11.088Z,24.65
2018-07-27T01:36:38.534Z,24.64
2018-07-27T01:39:06.008Z,24.64
2018-07-27T01:41:33.455Z,24.62
2018-07-27T01:44:00.946Z,24.66
2018-07-27T01:46:28.468Z,24.62
2018-07-27T01:48:55.942Z,24.58
2018-07-27T01:51:23.384Z,24.53
2018-07-27T01:53:50.904Z,24.47
2018-07-27T01:56:18.361Z,24.44
2018-07-27T01:58:45.948Z,24.36
2018-07-27T02:01:13.456Z,24.27
2018-07-27T02:03:40.983Z,24.24
2018-07-27T02:06:08.421Z,24.23
2018-07-27T02:08:35.841Z,24.22
2018-07-27T02:11:03.324Z,24.24
2018-07-27T02:13:30.822Z,24.23
2018-07-27T02:15:58.300Z,24.24
2018-07-27T02:18:25.770Z,24.20
2018-07-27T02:20:53.254Z,24.13
2018-07-27T02:23:20.678Z,24.08
2018-07-27T02:25:48.154Z,24.01
2018-07-27T02:28:15.768Z,23.99
2018-07-27T02:30:43.422Z,23.98
2018-07-27T02:33:10.924Z,23.93
2018-07-27T02:35:38.433Z,23.91
2018-07-27T02:38:05.873Z,23.85
2018-07-27T02:40:33.320Z,23.74
2018-07-27T02:43:00.816Z,23.77
2018-07-27T02:45:28.304Z,23.75
2018-07-27T02:47:55.781Z,23.64
2018-07-27T02:50:23.231Z,23.48
2018-07-27T02:52:50.737Z,23.32
2018-07-27T02:55:18.211Z,23.20
2018-07-27T02:57:45.701Z,23.19
2018-07-27T03:00:13.137Z,23.22
2018-07-27T03:02:40.549Z,23.27
2018-07-27T03:05:07.994Z,23.35
2018-07-27T03:07:35.435Z,23.37
2018-07-27T03:10:02.924Z,23.38
2018-07-27T03:12:30.431Z,23.39
2018-07-27T03:14:57.935Z,23.45
2018-07-27T03:17:25.408Z,23.40
2018-07-27T03:19:52.871Z,23.38
2018-07-27T03:22:20.318Z,23.38
2018-07-27T03:24:47.757Z,23.37
2018-07-27T03:27:15.244Z,23.33
2018-07-27T03:29:43.850Z,23.28
2018-07-27T03:32:11.305Z,23.27
2018-07-27T03:34:38.783Z,23.27
2018-07-27T03:37:06.251Z,23.30
2018-07-27T03:39:33.742Z,23.26
2018-07-27T03:42:01.208Z,23.22
2018-07-27T03:44:28.622Z,23.17
2018-07-27T03:46:56.081Z,23.21
2018-07-27T03:49:23.550Z,23.22
2018-07-27T03:51:50.982Z,23.18
2018-07-27T03:54:18.476Z,23.10
2018-07-27T03:56:45.965Z,23.04
2018-07-27T03:59:13.468Z,23.02
2018-07-27T04:01:40.917Z,23.02
2018-07-27T04:04:08.375Z,23.00
2018-07-27T04:06:35.910Z,22.97
2018-07-27T04:09:03.408Z,22.95
2018-07-27T04:11:30.899Z,22.98
2018-07-27T04:13:58.462Z,23.00
2018-07-27T04:16:25.922Z,22.99
2018-07-27T04:18:53.388Z,23.00
2018-07-27T04:21:20.845Z,22.97
2018-07-27T04:23:48.323Z,22.96
2018-07-27T04:26:15.824Z,22.98
2018-07-27T04:28:43.223Z,22.97
2018-07-27T04:31:10.754Z,22.95
2018-07-27T04:33:38.475Z,22.95
2018-07-27T04:36:05.883Z,22.87
2018-07-27T04:38:33.339Z,22.81
2018-07-27T04:41:00.815Z,22.80
2018-07-27T04:43:28.331Z,22.74
2018-07-27T04:45:55.779Z,22.77
2018-07-27T04:48:23.414Z,22.84
2018-07-27T04:50:50.895Z,22.89
2018-07-27T04:53:18.343Z,22.93
2018-07-27T04:55:45.779Z,22.94
2018-07-27T04:58:13.298Z,22.82
2018-07-27T05:00:40.740Z,22.88
2018-07-27T05:03:08.236Z,22.97
2018-07-27T05:05:35.662Z,23.10
2018-07-27T05:08:03.199Z,23.20
2018-07-27T05:10:30.831Z,23.29
2018-07-27T05:12:59.198Z,23.24
2018-07-27T05:15:27.159Z,23.11
2018-07-27T05:17:54.592Z,23.17
2018-07-27T05:20:22.088Z,23.32
2018-07-27T05:22:49.613Z,23.45
2018-07-27T05:25:17.117Z,23.58
2018-07-27T05:27:44.603Z,23.74
2018-07-27T05:30:12.083Z,23.86
2018-07-27T05:32:39.556Z,24.04
2018-07-27T05:35:07.064Z,24.14
2018-07-27T05:37:34.485Z,24.26
2018-07-27T05:40:02.097Z,24.38
2018-07-27T05:42:29.541Z,24.52
2018-07-27T05:44:57.072Z,24.62
2018-07-27T05:47:24.510Z,24.66
2018-07-27T05:49:51.967Z,24.76
2018-07-27T05:52:19.389Z,24.87
2018-07-27T05:54:46.835Z,24.82
2018-07-27T05:57:14.239Z,24.82
2018-07-27T05:59:41.670Z,24.94
2018-07-27T06:02:10.437Z,25.07
2018-07-27T06:04:36.549Z,25.20
2018-07-27T06:07:04.175Z,25.35
2018-07-27T06:09:31.630Z,25.48
2018-07-27T06:11:59.051Z,25.57
2018-07-27T06:14:26.546Z,25.64
2018-07-27T06:16:54.036Z,25.63
2018-07-27T06:19:21.484Z,25.65
2018-07-27T06:21:48.960Z,25.74
2018-07-27T06:24:16.564Z,25.79
2018-07-27T06:26:43.899Z,25.85
2018-07-27T06:29:11.584Z,25.88
2018-07-27T06:31:39.035Z,25.87
2018-07-27T06:34:06.623Z,26.02
2018-07-27T06:36:34.099Z,26.14
2018-07-27T06:39:01.599Z,26.15
2018-07-27T06:41:29.002Z,26.17
2018-07-27T06:43:56.445Z,26.19
2018-07-27T06:46:23.880Z,26.42
2018-07-27T06:48:51.423Z,26.53
2018-07-27T06:51:19.129Z,26.66
2018-07-27T06:53:46.700Z,26.86
2018-07-27T06:56:14.147Z,26.91
2018-07-27T06:58:41.645Z,27.02
2018-07-27T07:01:09.164Z,27.09
2018-07-27T07:03:36.621Z,27.20
2018-07-27T07:06:04.080Z,27.37
2018-07-27T07:08:31.544Z,27.59
2018-07-27T07:10:59.042Z,27.61
2018-07-27T07:13:26.484Z,27.49
2018-07-27T07:15:53.997Z,27.40
2018-07-27T07:18:21.590Z,27.54
2018-07-27T07:20:49.110Z,27.77
2018-07-27T07:23:16.601Z,28.22
2018-07-27T07:25:44.206Z,28.30
2018-07-27T07:28:11.569Z,28.64
2018-07-27T07:30:38.983Z,28.92
2018-07-27T07:33:06.477Z,29.25
2018-07-27T07:35:34.056Z,29.89
2018-07-27T07:38:01.544Z,30.16
2018-07-27T07:40:29.843Z,30.14
2018-07-27T07:42:57.457Z,30.29
2018-07-27T07:45:24.953Z,30.17
2018-07-27T07:47:52.497Z,30.54
2018-07-27T07:50:19.952Z,30.58
2018-07-27T07:52:47.525Z,30.97
2018-07-27T07:55:15.351Z,31.02
2018-07-27T07:57:42.795Z,31.28
2018-07-27T08:00:10.271Z,31.66
2018-07-27T08:02:37.864Z,31.97
2018-07-27T08:05:05.290Z,31.78
2018-07-27T08:07:32.824Z,31.74
2018-07-27T08:10:00.438Z,31.85
2018-07-27T08:12:27.941Z,32.16
2018-07-27T08:14:55.361Z,32.05
2018-07-27T08:17:22.899Z,31.95
2018-07-27T08:19:50.436Z,31.63
2018-07-27T08:22:17.894Z,32.07
2018-07-27T08:24:45.463Z,32.50
2018-07-27T08:27:12.996Z,32.16
2018-07-27T08:29:40.611Z,32.11
2018-07-27T08:32:08.349Z,32.37
2018-07-27T08:34:35.808Z,32.58
2018-07-27T08:37:03.257Z,32.65
2018-07-27T08:39:30.744Z,32.64
2018-07-27T08:41:58.233Z,32.71
2018-07-27T08:44:25.773Z,32.49
2018-07-27T08:46:53.247Z,32.58
2018-07-27T08:49:20.707Z,32.25
2018-07-27T08:51:48.219Z,31.93
2018-07-27T08:54:15.707Z,31.40
2018-07-27T08:56:43.185Z,31.44
2018-07-27T08:59:10.727Z,31.71
2018-07-27T09:01:38.234Z,31.87
2018-07-27T09:04:05.919Z,32.31
2018-07-27T09:06:32.935Z,32.30
2018-07-27T09:09:00.575Z,31.96
2018-07-27T09:11:27.665Z,32.16
2018-07-27T09:13:54.783Z,31.88
2018-07-27T09:16:21.833Z,31.52
2018-07-27T09:18:48.981Z,31.25
2018-07-27T09:21:16.593Z,31.37
2018-07-27T09:26:26.916Z,32.00
2018-07-27T09:28:54.302Z,32.03
2018-07-27T09:31:21.350Z,32.06
2018-07-27T09:33:48.477Z,32.56
2018-07-27T09:36:15.917Z,32.82
2018-07-27T09:38:43.505Z,33.05
2018-07-27T09:41:10.939Z,32.98
2018-07-27T09:43:37.968Z,32.46
2018-07-27T09:46:05.010Z,32.22
2018-07-27T09:48:32.029Z,32.45
2018-07-27T09:50:59.064Z,32.33
2018-07-27T09:53:26.064Z,32.53
2018-07-27T09:55:53.501Z,32.35
2018-07-27T09:58:20.511Z,32.08
2018-07-27T10:00:47.573Z,32.06
2018-07-27T10:03:14.610Z,32.21
2018-07-27T10:05:41.757Z,31.95
2018-07-27T10:08:08.846Z,32.08
2018-07-27T10:10:35.896Z,32.47
2018-07-27T10:13:02.937Z,32.95
2018-07-27T10:15:30.392Z,33.23
2018-07-27T10:17:57.832Z,33.37
2018-07-27T10:20:25.449Z,33.26
2018-07-27T10:22:52.397Z,33.37
2018-07-27T10:25:19.402Z,33.41
2018-07-27T10:27:46.478Z,33.09
2018-07-27T10:30:13.630Z,32.79
2018-07-27T10:32:40.595Z,32.78
2018-07-27T10:35:07.660Z,33.18
2018-07-27T10:37:34.652Z,33.31
2018-07-27T10:40:01.644Z,32.96
2018-07-27T10:42:28.634Z,32.91
2018-07-27T10:44:55.717Z,32.90
2018-07-27T10:47:22.921Z,33.04
2018-07-27T10:49:50.072Z,32.90
2018-07-27T10:52:17.140Z,33.03
2018-07-27T10:54:44.257Z,33.25
2018-07-27T10:57:11.274Z,33.06
2018-07-27T10:59:38.257Z,33.15
2018-07-27T11:02:05.722Z,33.33
2018-07-27T11:04:32.793Z,33.43
2018-07-27T11:06:59.782Z,33.30
2018-07-27T11:09:27.094Z,33.17
2018-07-27T11:11:54.104Z,33.46
2018-07-27T11:14:21.528Z,33.62
2018-07-27T11:16:49.070Z,33.57
2018-07-27T11:19:16.505Z,33.44
2018-07-27T11:21:43.981Z,33.67
2018-07-27T11:24:11.454Z,33.89
2018-07-27T11:26:38.964Z,34.19
2018-07-27T11:29:05.961Z,34.56
2018-07-27T11:31:33.084Z,34.62
2018-07-27T11:34:00.113Z,34.90
2018-07-27T11:36:27.129Z,34.94
2018-07-27T11:38:54.690Z,34.78
2018-07-27T11:41:21.667Z,34.52
2018-07-27T11:43:48.724Z,34.41
2018-07-27T11:46:15.670Z,34.39
2018-07-27T11:48:42.668Z,34.10
2018-07-27T11:51:09.668Z,34.06
2018-07-27T11:53:36.678Z,34.14
2018-07-27T11:56:04.192Z,34.22
2018-07-27T11:58:31.148Z,34.32
2018-07-27T12:00:58.230Z,34.33
2018-07-27T12:03:25.273Z,34.40
2018-07-27T12:05:52.318Z,34.18
2018-07-27T12:08:19.782Z,34.14
2018-07-27T12:10:47.280Z,34.35
2018-07-27T12:13:14.750Z,34.47
2018-07-27T12:15:42.633Z,34.49
2018-07-27T12:18:10.133Z,34.65
2018-07-27T12:20:37.163Z,34.84
2018-07-27T12:23:04.852Z,34.88
2018-07-27T12:25:32.328Z,34.81
2018-07-27T12:27:59.377Z,34.59
2018-07-27T12:30:26.897Z,34.63
2018-07-27T12:32:55.047Z,34.52
2018-07-27T12:35:22.525Z,34.38
2018-07-27T12:37:50.004Z,34.47
2018-07-27T12:40:17.481Z,34.64
2018-07-27T12:42:44.984Z,34.76
2018-07-27T12:45:12.022Z,34.97
2018-07-27T12:47:39.605Z,35.24
2018-07-27T12:50:07.110Z,35.60
2018-07-27T12:52:34.638Z,35.53
2018-07-27T12:55:02.127Z,35.40
2018-07-27T12:57:29.603Z,35.26
2018-07-27T12:59:56.630Z,35.24
2018-07-27T13:02:24.092Z,35.52
2018-07-27T13:04:51.513Z,35.58
2018-07-27T13:07:19.018Z,35.40
2018-07-27T13:09:46.475Z,35.41
2018-07-27T13:12:14.092Z,35.34
2018-07-27T13:14:41.041Z,35.44
2018-07-27T13:17:08.005Z,35.55
2018-07-27T13:19:35.031Z,35.60
2018-07-27T13:22:02.070Z,35.79
2018-07-27T13:26:56.775Z,36.43
2018-07-27T13:29:24.236Z,36.26
2018-07-27T13:31:51.655Z,36.05
2018-07-27T13:34:19.147Z,35.71
2018-07-27T13:36:46.563Z,35.67
2018-07-27T13:39:14.103Z,35.82
2018-07-27T13:41:41.557Z,35.90
2018-07-27T13:44:09.013Z,36.04
2018-07-27T13:46:36.477Z,36.25
2018-07-27T13:49:03.979Z,36.14
2018-07-27T13:51:31.489Z,36.07
2018-07-27T13:53:58.989Z,36.07
2018-07-27T13:56:26.489Z,36.25
2018-07-27T13:58:54.020Z,36.36
2018-07-27T14:01:21.435Z,36.57
2018-07-27T14:03:48.896Z,36.85
2018-07-27T14:06:16.398Z,37.06
2018-07-27T14:08:43.887Z,37.08
2018-07-27T14:11:11.378Z,37.03
2018-07-27T14:13:38.829Z,36.99
2018-07-27T14:16:06.339Z,37.00
2018-07-27T14:18:33.812Z,37.02
2018-07-27T14:21:01.504Z,37.21
2018-07-27T14:23:28.497Z,37.12
2018-07-27T14:25:56.000Z,36.97
2018-07-27T14:28:23.491Z,36.62
2018-07-27T14:30:50.915Z,36.14
2018-07-27T14:33:18.437Z,35.75
2018-07-27T14:35:45.888Z,35.59
2018-07-27T14:38:13.425Z,35.55
2018-07-27T14:40:40.862Z,35.51
2018-07-27T14:43:08.359Z,35.55
2018-07-27T14:45:35.762Z,35.66
2018-07-27T14:48:03.305Z,35.88
2018-07-27T14:50:30.783Z,36.08
2018-07-27T14:52:58.226Z,36.34
2018-07-27T14:55:25.732Z,36.56
2018-07-27T14:57:53.191Z,36.59
2018-07-27T15:00:20.655Z,36.39
2018-07-27T15:02:48.324Z,36.04
2018-07-27T15:05:15.823Z,35.91
2018-07-27T15:07:43.311Z,36.08
2018-07-27T15:10:10.943Z,36.17
2018-07-27T15:12:38.422Z,36.24
2018-07-27T15:15:06.011Z,36.27
2018-07-27T15:17:33.496Z,36.05
2018-07-27T15:20:00.964Z,35.92
2018-07-27T15:22:28.465Z,35.57
2018-07-27T15:24:56.019Z,35.37
2018-07-27T15:27:23.476Z,35.38
2018-07-27T15:29:50.967Z,35.54
2018-07-27T15:32:18.641Z,35.63
2018-07-27T15:34:46.145Z,35.70
2018-07-27T15:37:13.774Z,35.72
2018-07-27T15:39:41.245Z,35.71
2018-07-27T15:42:08.742Z,35.62
2018-07-27T15:44:36.191Z,35.53
2018-07-27T15:47:03.686Z,35.48
2018-07-27T15:49:31.223Z,35.57
2018-07-27T15:51:58.745Z,35.49
2018-07-27T15:54:27.641Z,35.22
2018-07-27T15:56:55.199Z,35.05
2018-07-27T15:59:22.684Z,35.19
2018-07-27T16:01:50.142Z,35.28
2018-07-27T16:04:17.930Z,35.38
2018-07-27T16:06:45.597Z,35.48
2018-07-27T16:09:13.081Z,35.55
2018-07-27T16:11:40.998Z,35.44
2018-07-27T16:14:08.466Z,35.42
2018-07-27T16:16:35.941Z,35.47
2018-07-27T16:19:03.485Z,35.53
2018-07-27T16:21:30.976Z,35.51
2018-07-27T16:23:58.445Z,35.19
2018-07-27T16:26:25.953Z,35.09
2018-07-27T16:28:53.528Z,35.15
2018-07-27T16:31:20.983Z,34.99
2018-07-27T16:33:48.412Z,34.86
2018-07-27T16:36:16.323Z,34.78
2018-07-27T16:38:43.736Z,34.66
2018-07-27T16:41:11.248Z,34.51
2018-07-27T16:43:38.739Z,34.49
2018-07-27T16:46:06.251Z,34.50
2018-07-27T16:48:34.454Z,34.49
2018-07-27T16:51:01.887Z,34.51
2018-07-27T16:53:29.365Z,34.53
2018-07-27T16:55:56.916Z,34.41
2018-07-27T16:58:24.434Z,34.29
2018-07-27T17:00:51.877Z,34.03
2018-07-27T17:03:19.509Z,33.88
2018-07-27T17:05:47.082Z,33.73
2018-07-27T17:08:14.659Z,33.74
2018-07-27T17:10:42.164Z,33.73
2018-07-27T17:13:09.746Z,33.66
2018-07-27T17:15:37.263Z,33.65
2018-07-27T17:18:04.718Z,33.76
2018-07-27T17:20:32.190Z,33.90
2018-07-27T17:22:59.722Z,34.04
2018-07-27T17:25:27.347Z,34.12
2018-07-27T17:27:54.792Z,34.13
2018-07-27T17:30:22.289Z,34.11
2018-07-27T17:32:49.800Z,33.95
2018-07-27T17:35:17.230Z,33.85
2018-07-27T17:37:44.804Z,34.03
2018-07-27T17:40:12.304Z,34.30
2018-07-27T17:42:39.991Z,34.31
2018-07-27T17:45:07.393Z,34.29
2018-07-27T17:47:34.857Z,34.34
2018-07-27T17:50:02.296Z,34.28
2018-07-27T17:52:29.766Z,34.12
2018-07-27T17:54:57.285Z,33.76
2018-07-27T17:57:24.687Z,33.58
2018-07-27T17:59:52.194Z,33.44
2018-07-27T18:02:19.625Z,33.21
2018-07-27T18:04:47.319Z,32.91
2018-07-27T18:07:14.938Z,32.75
2018-07-27T18:09:42.498Z,32.64
2018-07-27T18:12:10.142Z,32.45
2018-07-27T18:14:37.631Z,32.41
2018-07-27T18:17:05.083Z,32.46
2018-07-27T18:19:32.676Z,32.49
2018-07-27T18:22:00.208Z,32.47
2018-07-27T18:24:27.714Z,32.39
2018-07-27T18:26:55.168Z,32.34
2018-07-27T18:29:22.750Z,32.18
2018-07-27T18:31:50.203Z,32.04
2018-07-27T18:34:17.653Z,31.88
2018-07-27T18:36:45.122Z,31.77
2018-07-27T18:39:12.637Z,31.75
2018-07-27T18:41:40.060Z,31.72
2018-07-27T18:44:07.531Z,31.65
2018-07-27T18:46:34.980Z,31.56
2018-07-27T18:49:02.446Z,31.48
2018-07-27T18:51:29.971Z,31.36
2018-07-27T18:53:57.508Z,31.26
2018-07-27T18:56:24.971Z,31.20
2018-07-27T18:58:52.469Z,31.10
2018-07-27T19:01:19.934Z,31.04
2018-07-27T19:03:47.367Z,31.02
2018-07-27T19:06:14.920Z,31.01
2018-07-27T19:08:42.386Z,31.01
2018-07-27T19:11:09.920Z,31.03
2018-07-27T19:13:37.490Z,31.09
2018-07-27T19:16:05.038Z,31.13
2018-07-27T19:18:32.541Z,31.16
2018-07-27T19:20:59.990Z,31.17
2018-07-27T19:23:27.532Z,31.16
2018-07-27T19:25:54.907Z,31.16
2018-07-27T19:28:22.327Z,31.13
2018-07-27T19:30:49.931Z,31.11
2018-07-27T19:33:17.350Z,30.97
2018-07-27T19:35:44.816Z,30.88
2018-07-27T19:38:12.338Z,30.80
2018-07-27T19:40:39.771Z,30.74
2018-07-27T19:43:07.164Z,30.69
2018-07-27T19:45:34.808Z,30.63
2018-07-27T19:48:02.339Z,30.63
2018-07-27T19:50:29.761Z,30.57
2018-07-27T19:52:57.225Z,30.52
2018-07-27T19:55:24.650Z,30.47
2018-07-27T19:57:52.133Z,30.42
2018-07-27T20:00:19.577Z,30.32
2018-07-27T20:02:47.019Z,30.27
2018-07-27T20:05:14.507Z,30.22
2018-07-27T20:07:42.173Z,30.24
2018-07-27T20:10:09.827Z,30.25
2018-07-27T20:12:37.299Z,30.23
2018-07-27T20:15:04.711Z,30.23
2018-07-27T20:17:32.198Z,30.21
2018-07-27T20:19:59.882Z,30.20
2018-07-27T20:22:27.351Z,30.08
2018-07-27T20:24:54.933Z,29.96
2018-07-27T20:27:22.438Z,29.89
2018-07-27T20:29:49.929Z,29.89
2018-07-27T20:32:17.420Z,29.84
2018-07-27T20:34:45.050Z,29.86
2018-07-27T20:37:12.703Z,29.85
2018-07-27T20:39:40.456Z,29.86
2018-07-27T20:42:07.881Z,29.84
2018-07-27T20:44:35.363Z,29.80
2018-07-27T20:47:02.798Z,29.80
2018-07-27T20:49:30.244Z,29.78
2018-07-27T20:51:57.670Z,29.76
2018-07-27T20:54:25.217Z,29.73
2018-07-27T20:56:52.671Z,29.70
2018-07-27T20:59:20.168Z,29.71
2018-07-27T21:01:47.610Z,29.72
2018-07-27T21:04:15.203Z,29.68
2018-07-27T21:06:42.748Z,29.65
2018-07-27T21:09:10.237Z,29.58
2018-07-27T21:11:37.780Z,29.55
2018-07-27T21:14:05.297Z,29.53
2018-07-27T21:16:32.796Z,29.44
2018-07-27T21:19:00.227Z,29.36
2018-07-27T21:21:27.720Z,29.35
2018-07-27T21:23:55.257Z,29.37
2018-07-27T21:26:22.955Z,29.33
2018-07-27T21:28:50.455Z,29.33
2018-07-27T21:31:17.916Z,29.33
2018-07-27T21:33:45.419Z,29.26
2018-07-27T21:36:12.919Z,29.17
2018-07-27T21:38:40.411Z,29.07
2018-07-27T21:41:07.979Z,29.01
2018-07-27T21:43:35.536Z,28.84
2018-07-27T21:46:03.047Z,28.80
2018-07-27T21:48:30.493Z,28.72
2018-07-27T21:50:57.992Z,28.65
2018-07-27T21:53:25.449Z,28.69
2018-07-27T21:55:53.044Z,28.66
2018-07-27T21:58:20.592Z,28.60
2018-07-27T22:00:48.061Z,28.49
2018-07-27T22:03:15.568Z,28.33
2018-07-27T22:05:43.305Z,28.20
2018-07-27T22:08:10.795Z,28.12
2018-07-27T22:10:38.249Z,28.18
2018-07-27T22:13:05.689Z,28.09
2018-07-27T22:15:33.142Z,27.88
2018-07-27T22:18:00.608Z,27.79
2018-07-27T22:20:28.110Z,27.73
2018-07-27T22:22:55.564Z,27.69
2018-07-27T22:25:23.014Z,27.63
2018-07-27T22:27:50.461Z,27.58
2018-07-27T22:30:18.051Z,27.49
2018-07-27T22:32:45.468Z,27.45
2018-07-27T22:35:13.023Z,27.40
2018-07-27T22:37:40.484Z,27.40
2018-07-27T22:40:07.926Z,27.40
2018-07-27T22:42:35.383Z,27.39
2018-07-27T22:45:02.829Z,27.36
2018-07-27T22:47:30.312Z,27.38
2018-07-27T22:49:57.748Z,27.27
2018-07-27T22:52:25.198Z,27.23
2018-07-27T22:54:52.602Z,27.26
2018-07-27T22:57:20.049Z,27.27
2018-07-27T22:59:47.610Z,27.24
2018-07-27T23:02:15.091Z,27.07
2018-07-27T23:04:42.552Z,26.96
2018-07-27T23:07:10.909Z,26.96
2018-07-27T23:09:38.426Z,27.01
2018-07-27T23:12:05.968Z,27.04
2018-07-27T23:14:33.435Z,27.04
2018-07-27T23:17:00.982Z,27.04
2018-07-27T23:19:28.584Z,27.08
2018-07-27T23:21:56.025Z,27.10
2018-07-27T23:24:23.474Z,27.13
2018-07-27T23:26:50.894Z,27.15
2018-07-27T23:29:18.328Z,27.19
2018-07-27T23:31:45.826Z,27.23
2018-07-27T23:34:13.344Z,27.22
2018-07-27T23:36:40.783Z,27.17
2018-07-27T23:39:08.248Z,27.18
2018-07-27T23:41:35.678Z,27.18
2018-07-27T23:44:03.187Z,27.15
2018-07-27T23:46:30.698Z,27.18
2018-07-27T23:48:58.242Z,27.19
2018-07-27T23:51:26.805Z,27.16
2018-07-27T23:53:54.270Z,27.14
2018-07-27T23:56:21.702Z,27.16
2018-07-27T23:58:49.156Z,27.15
